createdAt,value
2019-04-27T00:00:38.482Z,11.90
2019-04-27T00:03:19.417Z,9.73
2019-04-27T00:05:53.572Z,10.87
2019-04-27T00:08:39.117Z,13.37
2019-04-27T00:11:16.487Z,12.63
2019-04-27T00:13:46.287Z,10.60
2019-04-27T00:16:20.264Z,13.77
2019-04-27T00:19:06.168Z,12.27
2019-04-27T00:21:37.242Z,10.60
2019-04-27T00:24:06.707Z,21.20
2019-04-27T00:26:36.405Z,9.40
2019-04-27T00:29:06.191Z,11.67
2019-04-27T00:31:36.256Z,24.13
2019-04-27T00:34:05.760Z,21.40
2019-04-27T00:36:45.916Z,13.23
2019-04-27T00:39:16.988Z,10.17
2019-04-27T00:41:46.420Z,11.10
2019-04-27T00:44:15.868Z,20.70
2019-04-27T00:46:45.373Z,15.90
2019-04-27T00:49:14.824Z,13.23
2019-04-27T00:51:44.264Z,13.03
2019-04-27T00:54:13.710Z,23.00
2019-04-27T00:56:50.280Z,13.30
2019-04-27T00:59:34.278Z,10.03
2019-04-27T01:02:06.206Z,9.50
2019-04-27T01:04:36.511Z,10.50
2019-04-27T01:07:06.394Z,11.17
2019-04-27T01:09:36.406Z,17.87
2019-04-27T01:12:06.468Z,14.33
2019-04-27T01:14:35.911Z,14.87
2019-04-27T01:17:05.511Z,12.57
2019-04-27T01:19:35.010Z,12.97
2019-04-27T01:22:04.804Z,11.97
2019-04-27T01:24:34.235Z,12.63
2019-04-27T01:27:09.385Z,23.40
2019-04-27T01:29:41.452Z,14.90
2019-04-27T01:32:12.565Z,13.80
2019-04-27T01:34:41.998Z,18.20
2019-04-27T01:37:11.454Z,12.60
2019-04-27T01:39:40.877Z,11.50
2019-04-27T01:42:10.593Z,12.37
2019-04-27T01:44:40.034Z,21.70
2019-04-27T01:47:10.159Z,22.83
2019-04-27T01:49:39.801Z,21.50
2019-04-27T01:52:09.733Z,16.57
2019-04-27T01:54:40.959Z,16.57
2019-04-27T01:57:10.578Z,29.17
2019-04-27T01:59:40.185Z,21.17
2019-04-27T02:02:10.602Z,34.90
2019-04-27T02:04:49.348Z,15.17
2019-04-27T02:07:19.243Z,15.10
2019-04-27T02:09:49.042Z,13.67
2019-04-27T02:12:19.171Z,18.40
2019-04-27T02:14:49.206Z,19.07
2019-04-27T02:17:18.831Z,29.20
2019-04-27T02:19:49.379Z,41.07
2019-04-27T02:22:18.888Z,20.50
2019-04-27T02:24:49.285Z,14.37
2019-04-27T02:27:20.448Z,19.03
2019-04-27T02:29:54.295Z,17.77
2019-04-27T02:32:25.359Z,15.87
2019-04-27T02:34:56.443Z,27.90
2019-04-27T02:37:25.912Z,20.30
2019-04-27T02:39:55.401Z,11.00
2019-04-27T02:42:26.475Z,26.23
2019-04-27T02:44:55.901Z,17.50
2019-04-27T02:47:25.343Z,14.23
2019-04-27T02:49:54.773Z,20.40
2019-04-27T02:52:25.857Z,18.03
2019-04-27T02:54:55.288Z,16.10
2019-04-27T02:57:24.724Z,18.97
2019-04-27T02:59:54.160Z,16.20
2019-04-27T03:02:25.247Z,15.10
2019-04-27T03:04:54.679Z,13.00
2019-04-27T03:07:24.117Z,12.97
2019-04-27T03:09:53.558Z,18.43
2019-04-27T03:12:24.628Z,12.67
2019-04-27T03:14:53.842Z,28.83
2019-04-27T03:17:23.108Z,16.40
2019-04-27T03:20:10.632Z,30.57
2019-04-27T03:22:41.720Z,23.00
2019-04-27T03:25:14.982Z,34.90
2019-04-27T03:27:44.260Z,13.00
2019-04-27T03:30:15.743Z,21.73
2019-04-27T03:32:45.256Z,21.63
2019-04-27T03:35:15.026Z,27.43
2019-04-27T03:37:45.041Z,48.83
2019-04-27T03:40:14.655Z,44.17
2019-04-27T03:42:45.811Z,41.50
2019-04-27T03:45:15.491Z,57.73
2019-04-27T03:47:45.181Z,19.77
2019-04-27T03:50:16.336Z,44.80
2019-04-27T03:53:01.862Z,24.73
2019-04-27T03:55:35.396Z,15.90
2019-04-27T03:58:22.337Z,41.70
2019-04-27T04:00:53.323Z,67.33
2019-04-27T04:03:22.858Z,31.90
2019-04-27T04:05:52.334Z,19.97
2019-04-27T04:08:21.871Z,36.70
2019-04-27T04:10:53.109Z,14.97
2019-04-27T04:13:24.237Z,24.10
2019-04-27T04:15:56.493Z,22.17
2019-04-27T04:18:26.799Z,39.50
2019-04-27T04:20:56.267Z,20.10
2019-04-27T04:23:25.738Z,12.93
2019-04-27T04:25:55.230Z,42.37
2019-04-27T04:28:24.686Z,30.27
2019-04-27T04:30:54.157Z,26.27
2019-04-27T04:33:23.612Z,39.20
2019-04-27T04:35:53.067Z,20.67
2019-04-27T04:38:22.543Z,26.10
2019-04-27T04:41:02.756Z,12.47
2019-04-27T04:43:39.938Z,21.57
2019-04-27T04:46:26.720Z,30.97
2019-04-27T04:48:56.232Z,51.60
2019-04-27T04:51:25.755Z,18.87
2019-04-27T04:53:55.230Z,12.37
2019-04-27T04:56:24.833Z,32.20
2019-04-27T04:58:54.261Z,18.33
2019-04-27T05:01:23.697Z,10.90
2019-04-27T05:03:53.183Z,12.17
2019-04-27T05:06:25.400Z,12.67
2019-04-27T05:08:53.787Z,13.63
2019-04-27T05:11:23.234Z,27.70
2019-04-27T05:13:52.708Z,37.87
2019-04-27T05:16:22.117Z,14.47
2019-04-27T05:18:51.571Z,12.97
2019-04-27T05:21:29.453Z,31.53
2019-04-27T05:24:00.735Z,20.73
2019-04-27T05:26:30.341Z,15.77
2019-04-27T05:28:59.762Z,20.97
2019-04-27T05:31:29.389Z,45.17
2019-04-27T05:33:59.404Z,19.73
2019-04-27T05:36:29.672Z,50.43
2019-04-27T05:38:59.748Z,30.33
2019-04-27T05:41:31.253Z,22.10
2019-04-27T05:44:03.181Z,12.93
2019-04-27T05:46:49.306Z,18.43
2019-04-27T05:49:29.347Z,29.60
2019-04-27T05:51:59.566Z,14.10
2019-04-27T05:54:29.442Z,14.50
2019-04-27T05:56:59.279Z,11.60
2019-04-27T05:59:29.824Z,12.73
2019-04-27T06:01:59.466Z,12.27
2019-04-27T06:04:29.198Z,14.27
2019-04-27T06:07:00.946Z,15.60
2019-04-27T06:09:29.837Z,14.33
2019-04-27T06:11:59.264Z,14.30
2019-04-27T06:14:29.234Z,17.07
2019-04-27T06:16:59.646Z,14.00
2019-04-27T06:19:29.263Z,13.07
2019-04-27T06:22:00.984Z,13.30
2019-04-27T06:24:29.903Z,14.17
2019-04-27T06:26:59.785Z,12.97
2019-04-27T06:29:29.399Z,13.23
2019-04-27T06:31:59.345Z,12.13
2019-04-27T06:34:30.946Z,17.13
2019-04-27T06:37:00.134Z,12.77
2019-04-27T06:39:29.912Z,11.40
2019-04-27T06:42:01.352Z,13.10
2019-04-27T06:44:30.826Z,12.23
2019-04-27T06:47:00.287Z,14.27
2019-04-27T06:49:29.699Z,13.70
2019-04-27T06:51:59.131Z,15.93
2019-04-27T06:54:28.991Z,15.20
2019-04-27T06:56:59.288Z,15.23
2019-04-27T06:59:29.040Z,15.23
2019-04-27T07:02:00.533Z,16.87
2019-04-27T07:04:29.882Z,17.90
2019-04-27T07:07:01.641Z,14.37
2019-04-27T07:09:30.493Z,13.47
2019-04-27T07:11:59.932Z,13.47
2019-04-27T07:14:29.587Z,14.70
2019-04-27T07:16:59.272Z,16.27
2019-04-27T07:19:30.188Z,13.77
2019-04-27T07:21:59.645Z,15.53
2019-04-27T07:24:29.324Z,15.83
2019-04-27T07:26:59.638Z,13.73
2019-04-27T07:29:29.388Z,14.10
2019-04-27T07:31:59.694Z,14.23
2019-04-27T07:34:30.523Z,15.30
2019-04-27T07:37:00.046Z,15.20
2019-04-27T07:39:29.543Z,13.57
2019-04-27T07:41:59.018Z,13.07
2019-04-27T07:44:46.333Z,13.60
2019-04-27T07:47:19.334Z,13.00
2019-04-27T07:49:49.749Z,12.23
2019-04-27T07:52:20.503Z,12.13
2019-04-27T07:54:50.195Z,13.30
2019-04-27T07:57:19.972Z,13.30
2019-04-27T07:59:50.180Z,11.77
2019-04-27T08:02:19.799Z,13.73
2019-04-27T08:04:50.479Z,13.37
2019-04-27T08:07:20.177Z,14.17
2019-04-27T08:09:49.909Z,13.40
2019-04-27T08:12:20.879Z,16.50
2019-04-27T08:14:50.519Z,14.27
2019-04-27T08:17:19.962Z,14.77
2019-04-27T08:19:49.754Z,17.20
2019-04-27T08:22:19.575Z,14.90
2019-04-27T08:24:49.811Z,10.93
2019-04-27T08:27:23.777Z,15.87
2019-04-27T08:29:55.084Z,10.90
2019-04-27T08:32:26.156Z,12.80
2019-04-27T08:34:55.610Z,10.60
2019-04-27T08:37:25.060Z,11.80
2019-04-27T08:39:54.502Z,9.70
2019-04-27T08:42:23.947Z,11.60
2019-04-27T08:44:53.400Z,12.50
2019-04-27T08:47:22.840Z,11.03
2019-04-27T08:49:52.274Z,10.87
2019-04-27T08:52:21.721Z,10.67
2019-04-27T08:54:51.183Z,9.40
2019-04-27T08:57:20.722Z,12.27
2019-04-27T08:59:51.103Z,9.00
2019-04-27T09:02:20.642Z,21.07
2019-04-27T09:04:50.090Z,10.80
2019-04-27T09:07:32.921Z,12.10
2019-04-27T09:10:09.707Z,10.70
2019-04-27T09:12:56.598Z,11.00
2019-04-27T09:15:32.159Z,9.00
2019-04-27T09:18:02.366Z,10.20
2019-04-27T09:20:33.464Z,10.57
2019-04-27T09:23:03.163Z,8.33
2019-04-27T09:25:32.596Z,10.17
2019-04-27T09:28:02.045Z,9.80
2019-04-27T09:30:31.483Z,7.27
2019-04-27T09:33:00.913Z,6.87
2019-04-27T09:35:30.362Z,8.67
2019-04-27T09:37:59.809Z,8.40
2019-04-27T09:40:29.233Z,8.20
2019-04-27T09:42:58.674Z,7.20
2019-04-27T09:45:28.108Z,6.90
2019-04-27T09:47:57.546Z,9.27
2019-04-27T09:50:28.241Z,5.43
2019-04-27T09:52:57.786Z,7.40
2019-04-27T09:55:27.231Z,9.23
2019-04-27T09:57:57.039Z,6.63
2019-04-27T10:00:27.760Z,6.50
2019-04-27T10:02:57.341Z,8.30
2019-04-27T10:05:26.768Z,6.50
2019-04-27T10:07:56.897Z,6.77
2019-04-27T10:10:26.901Z,6.00
2019-04-27T10:12:56.932Z,6.47
2019-04-27T10:15:26.772Z,6.20
2019-04-27T10:17:57.693Z,7.50
2019-04-27T10:20:27.319Z,7.50
2019-04-27T10:22:56.847Z,8.50
2019-04-27T10:25:27.907Z,7.20
2019-04-27T10:28:00.050Z,7.80
2019-04-27T10:30:30.489Z,6.23
2019-04-27T10:32:59.991Z,8.93
2019-04-27T10:35:29.578Z,6.33
2019-04-27T10:37:59.011Z,6.80
2019-04-27T10:40:28.465Z,11.50
2019-04-27T10:42:57.969Z,7.77
2019-04-27T10:45:27.427Z,8.40
2019-04-27T10:47:56.870Z,11.53
2019-04-27T10:50:26.680Z,9.60
2019-04-27T10:52:58.925Z,13.90
2019-04-27T10:55:27.319Z,8.60
2019-04-27T10:57:56.749Z,13.43
2019-04-27T11:00:27.930Z,9.00
2019-04-27T11:02:58.426Z,7.57
2019-04-27T11:05:38.356Z,14.13
2019-04-27T11:08:09.654Z,9.50
2019-04-27T11:10:39.082Z,8.43
2019-04-27T11:13:08.521Z,10.50
2019-04-27T11:15:38.049Z,14.60
2019-04-27T11:18:07.550Z,10.60
2019-04-27T11:20:37.002Z,14.90
2019-04-27T11:23:09.806Z,9.70
2019-04-27T11:25:37.625Z,11.10
2019-04-27T11:28:07.084Z,15.67
2019-04-27T11:30:36.587Z,7.87
2019-04-27T11:33:06.376Z,13.20
2019-04-27T11:35:37.461Z,9.60
2019-04-27T11:38:07.023Z,10.33
2019-04-27T11:40:38.325Z,11.10
2019-04-27T11:43:08.077Z,10.60
2019-04-27T11:45:37.517Z,13.87
2019-04-27T11:48:06.949Z,10.27
2019-04-27T11:50:36.407Z,9.47
2019-04-27T11:53:06.307Z,8.33
2019-04-27T11:55:35.833Z,10.50
2019-04-27T11:58:06.541Z,8.60
2019-04-27T12:00:36.502Z,8.43
2019-04-27T12:03:06.790Z,6.70
2019-04-27T12:05:36.387Z,8.50
2019-04-27T12:08:06.356Z,7.67
2019-04-27T12:10:36.325Z,7.00
2019-04-27T12:13:07.589Z,8.30
2019-04-27T12:15:37.204Z,11.77
2019-04-27T12:18:08.940Z,9.37
2019-04-27T12:20:38.031Z,8.23
2019-04-27T12:23:07.598Z,11.63
2019-04-27T12:25:37.468Z,9.80
2019-04-27T12:28:09.610Z,12.00
2019-04-27T12:30:40.707Z,11.00
2019-04-27T12:33:10.157Z,8.00
2019-04-27T12:35:39.663Z,8.37
2019-04-27T12:38:09.166Z,8.83
2019-04-27T12:40:39.177Z,8.43
2019-04-27T12:43:08.603Z,8.87
2019-04-27T12:45:40.995Z,8.97
2019-04-27T12:48:09.211Z,10.40
2019-04-27T12:50:38.657Z,10.33
2019-04-27T12:53:12.471Z,8.57
2019-04-27T12:55:52.345Z,8.10
2019-04-27T12:58:31.847Z,14.40
2019-04-27T13:01:01.062Z,8.07
2019-04-27T13:03:30.504Z,7.80
2019-04-27T13:05:59.949Z,6.50
2019-04-27T13:08:29.374Z,6.93
2019-04-27T13:10:58.823Z,7.30
2019-04-27T13:13:28.264Z,6.73
2019-04-27T13:15:57.723Z,6.57
2019-04-27T13:18:27.240Z,10.10
2019-04-27T13:20:56.671Z,8.17
2019-04-27T13:23:26.368Z,7.40
2019-04-27T13:25:56.517Z,8.47
2019-04-27T13:28:25.982Z,6.33
2019-04-27T13:30:55.953Z,6.80
2019-04-27T13:33:26.306Z,6.63
2019-04-27T13:35:55.772Z,4.57
2019-04-27T13:38:26.739Z,4.57
2019-04-27T13:41:06.932Z,3.40
2019-04-27T13:43:38.082Z,3.40
2019-04-27T13:46:08.260Z,5.17
2019-04-27T13:48:46.615Z,3.33
2019-04-27T13:51:35.554Z,2.77
2019-04-27T13:54:17.233Z,9.33
2019-04-27T13:56:36.448Z,4.33
2019-04-27T13:59:07.710Z,3.63
2019-04-27T14:01:37.347Z,2.30
2019-04-27T14:04:06.984Z,8.27
2019-04-27T14:06:36.588Z,2.77
2019-04-27T14:09:09.280Z,4.00
2019-04-27T14:11:39.324Z,3.00
2019-04-27T14:14:08.983Z,8.40
2019-04-27T14:16:39.229Z,3.33
2019-04-27T14:19:10.941Z,3.17
2019-04-27T14:21:39.894Z,4.40
2019-04-27T14:24:09.380Z,8.17
2019-04-27T14:26:38.805Z,2.80
2019-04-27T14:29:08.705Z,3.40
2019-04-27T14:31:39.658Z,2.23
2019-04-27T14:34:09.345Z,6.77
2019-04-27T14:36:40.649Z,2.10
2019-04-27T14:39:11.616Z,2.67
2019-04-27T14:41:41.116Z,2.10
2019-04-27T14:44:10.812Z,8.33
2019-04-27T14:46:40.296Z,4.43
2019-04-27T14:49:09.741Z,3.67
2019-04-27T14:51:40.171Z,5.17
2019-04-27T14:54:09.745Z,11.43
2019-04-27T14:56:39.251Z,4.97
2019-04-27T14:59:08.947Z,2.97
2019-04-27T15:01:40.101Z,2.67
2019-04-27T15:04:09.593Z,9.13
2019-04-27T15:06:39.020Z,2.53
2019-04-27T15:09:08.793Z,4.40
2019-04-27T15:11:38.222Z,3.20
2019-04-27T15:14:09.052Z,8.13
2019-04-27T15:16:42.240Z,3.67
2019-04-27T15:19:13.260Z,3.40
2019-04-27T15:21:55.829Z,3.90
2019-04-27T15:24:13.817Z,15.57
2019-04-27T15:26:43.267Z,4.03
2019-04-27T15:29:14.352Z,3.77
2019-04-27T15:31:45.430Z,3.30
2019-04-27T15:34:16.523Z,17.93
2019-04-27T15:36:52.847Z,3.90
2019-04-27T15:39:22.541Z,4.80
2019-04-27T15:42:07.849Z,3.77
2019-04-27T15:44:36.508Z,6.20
2019-04-27T15:47:10.324Z,7.30
2019-04-27T15:49:40.725Z,5.30
2019-04-27T15:52:09.083Z,5.33
2019-04-27T15:54:38.613Z,4.47
2019-04-27T15:57:10.589Z,4.50
2019-04-27T15:59:41.078Z,6.00
2019-04-27T16:02:15.217Z,3.73
2019-04-27T16:04:44.343Z,3.37
2019-04-27T16:07:13.206Z,3.07
2019-04-27T16:09:42.640Z,3.40
2019-04-27T16:12:12.876Z,3.70
2019-04-27T16:14:44.186Z,3.27
2019-04-27T16:17:13.772Z,4.50
2019-04-27T16:19:48.753Z,4.90
2019-04-27T16:22:14.458Z,4.07
2019-04-27T16:24:44.028Z,3.63
2019-04-27T16:27:13.462Z,5.70
2019-04-27T16:29:42.911Z,2.93
2019-04-27T16:32:12.397Z,3.00
2019-04-27T16:34:41.875Z,4.10
2019-04-27T16:37:14.005Z,3.80
2019-04-27T16:39:45.845Z,3.70
2019-04-27T16:42:15.495Z,2.80
2019-04-27T16:44:49.489Z,6.00
2019-04-27T16:47:18.891Z,6.17
2019-04-27T16:49:48.440Z,4.23
2019-04-27T16:52:19.280Z,4.20
2019-04-27T16:54:57.017Z,4.47
2019-04-27T16:57:21.622Z,5.63
2019-04-27T16:59:57.492Z,2.57
2019-04-27T17:02:25.154Z,3.97
2019-04-27T17:04:55.669Z,3.80
2019-04-27T17:07:24.568Z,5.03
2019-04-27T17:09:54.015Z,4.30
2019-04-27T17:12:28.543Z,3.70
2019-04-27T17:15:13.696Z,4.50
2019-04-27T17:18:00.393Z,4.67
2019-04-27T17:20:29.987Z,4.93
2019-04-27T17:22:59.443Z,5.37
2019-04-27T17:25:33.073Z,4.27
2019-04-27T17:28:03.993Z,3.20
2019-04-27T17:30:39.846Z,3.27
2019-04-27T17:33:11.733Z,4.77
2019-04-27T17:35:39.512Z,4.90
2019-04-27T17:38:12.340Z,3.20
2019-04-27T17:40:39.688Z,4.33
2019-04-27T17:43:10.487Z,2.70
2019-04-27T17:45:40.050Z,4.67
2019-04-27T17:48:10.768Z,3.87
2019-04-27T17:50:40.619Z,4.73
2019-04-27T17:53:10.053Z,3.57
2019-04-27T17:55:39.483Z,5.20
2019-04-27T17:58:08.995Z,4.07
2019-04-27T18:00:43.175Z,2.20
2019-04-27T18:03:12.638Z,3.10
2019-04-27T18:05:43.921Z,3.30
2019-04-27T18:08:13.624Z,4.50
2019-04-27T18:10:43.200Z,3.70
2019-04-27T18:13:12.625Z,3.97
2019-04-27T18:15:45.794Z,3.67
2019-04-27T18:18:18.712Z,4.33
2019-04-27T18:20:48.214Z,5.00
2019-04-27T18:23:22.883Z,5.37
2019-04-27T18:25:59.487Z,3.80
2019-04-27T18:28:38.559Z,5.47
2019-04-27T18:31:11.498Z,3.70
2019-04-27T18:33:40.461Z,5.57
2019-04-27T18:36:14.073Z,6.07
2019-04-27T18:38:41.027Z,5.53
2019-04-27T18:41:11.596Z,3.03
2019-04-27T18:43:46.366Z,3.63
2019-04-27T18:46:14.794Z,5.30
2019-04-27T18:48:44.901Z,4.70
2019-04-27T18:51:25.149Z,4.47
2019-04-27T18:53:54.186Z,4.60
2019-04-27T18:56:24.828Z,4.20
2019-04-27T18:58:54.249Z,4.40
2019-04-27T19:01:23.684Z,4.07
2019-04-27T19:03:53.210Z,5.23
2019-04-27T19:06:22.684Z,10.23
2019-04-27T19:08:52.092Z,3.17
2019-04-27T19:11:21.551Z,4.30
2019-04-27T19:13:50.972Z,3.60
2019-04-27T19:16:22.269Z,6.57
2019-04-27T19:18:51.561Z,3.67
2019-04-27T19:21:20.992Z,4.50
2019-04-27T19:23:50.511Z,3.80
2019-04-27T19:26:20.556Z,5.23
2019-04-27T19:29:03.551Z,5.20
2019-04-27T19:31:34.606Z,2.60
2019-04-27T19:34:04.066Z,3.97
2019-04-27T19:36:33.509Z,2.63
2019-04-27T19:39:04.272Z,3.87
2019-04-27T19:41:33.716Z,3.57
2019-04-27T19:44:03.144Z,6.17
2019-04-27T19:46:32.589Z,3.30
2019-04-27T19:49:02.014Z,6.00
2019-04-27T19:51:31.447Z,3.83
2019-04-27T19:54:01.126Z,5.87
2019-04-27T19:56:30.574Z,4.43
2019-04-27T19:59:01.622Z,3.10
2019-04-27T20:01:35.380Z,2.23
2019-04-27T20:04:10.709Z,7.37
2019-04-27T20:06:40.149Z,2.27
2019-04-27T20:09:20.006Z,3.47
2019-04-27T20:11:49.432Z,1.90
2019-04-27T20:14:20.704Z,3.33
2019-04-27T20:16:51.795Z,3.50
2019-04-27T20:19:21.629Z,4.70
2019-04-27T20:21:51.046Z,4.07
2019-04-27T20:24:20.470Z,6.13
2019-04-27T20:26:49.986Z,5.27
2019-04-27T20:29:19.475Z,3.67
2019-04-27T20:31:48.940Z,3.97
2019-04-27T20:34:18.365Z,6.27
2019-04-27T20:36:47.790Z,2.33
2019-04-27T20:39:17.233Z,4.20
2019-04-27T20:41:46.765Z,4.70
2019-04-27T20:44:16.208Z,7.90
2019-04-27T20:46:45.742Z,4.10
2019-04-27T20:49:16.803Z,4.57
2019-04-27T20:52:00.998Z,3.43
2019-04-27T20:54:32.527Z,5.03
2019-04-27T20:57:01.704Z,5.77
2019-04-27T20:59:31.160Z,3.07
2019-04-27T21:02:02.440Z,4.00
2019-04-27T21:04:33.519Z,4.70
2019-04-27T21:07:07.066Z,4.90
2019-04-27T21:09:36.513Z,3.03
2019-04-27T21:12:05.959Z,4.07
2019-04-27T21:14:35.396Z,4.30
2019-04-27T21:17:04.853Z,5.07
2019-04-27T21:19:34.283Z,5.20
2019-04-27T21:22:03.741Z,4.93
2019-04-27T21:24:33.166Z,5.80
2019-04-27T21:27:02.602Z,4.70
2019-04-27T21:29:32.057Z,5.40
2019-04-27T21:32:01.485Z,7.67
2019-04-27T21:34:31.166Z,4.90
2019-04-27T21:37:01.133Z,4.33
2019-04-27T21:39:31.918Z,6.77
2019-04-27T21:42:01.387Z,4.77
2019-04-27T21:44:31.979Z,5.77
2019-04-27T21:47:01.451Z,5.40
2019-04-27T21:49:31.437Z,4.73
2019-04-27T21:52:14.521Z,5.93
2019-04-27T21:54:44.090Z,6.40
2019-04-27T21:57:13.516Z,7.00
2019-04-27T21:59:42.962Z,5.10
2019-04-27T22:02:13.055Z,4.37
2019-04-27T22:04:42.604Z,2.80
2019-04-27T22:07:12.105Z,5.07
2019-04-27T22:09:43.260Z,8.23
2019-04-27T22:12:12.736Z,5.27
2019-04-27T22:14:42.169Z,7.73
2019-04-27T22:17:11.848Z,6.37
2019-04-27T22:19:41.464Z,6.00
2019-04-27T22:22:12.623Z,5.90
2019-04-27T22:24:43.078Z,6.80
2019-04-27T22:27:12.635Z,5.73
2019-04-27T22:29:42.072Z,4.17
2019-04-27T22:32:11.701Z,5.30
2019-04-27T22:34:41.411Z,5.47
2019-04-27T22:37:11.178Z,5.73
2019-04-27T22:39:45.249Z,5.50
2019-04-27T22:42:26.319Z,5.20
2019-04-27T22:44:57.356Z,4.37
2019-04-27T22:47:26.790Z,10.83
2019-04-27T22:49:56.228Z,6.87
2019-04-27T22:52:25.660Z,8.03
2019-04-27T22:54:55.103Z,6.27
2019-04-27T22:57:26.166Z,5.80
2019-04-27T22:59:57.258Z,5.53
2019-04-27T23:02:29.392Z,5.90
2019-04-27T23:05:01.925Z,4.93
2019-04-27T23:07:31.704Z,7.00
2019-04-27T23:10:01.790Z,6.17
2019-04-27T23:12:31.687Z,4.73
2019-04-27T23:15:01.239Z,6.50
2019-04-27T23:17:37.938Z,5.70
2019-04-27T23:20:07.937Z,5.83
2019-04-27T23:22:37.378Z,6.23
2019-04-27T23:25:08.311Z,6.33
2019-04-27T23:27:37.737Z,7.83
2019-04-27T23:30:07.986Z,7.27
2019-04-27T23:32:41.796Z,5.57
2019-04-27T23:35:11.385Z,6.63
2019-04-27T23:37:40.831Z,8.00
2019-04-27T23:40:11.198Z,6.13
2019-04-27T23:42:41.655Z,5.87
2019-04-27T23:45:12.443Z,8.90
2019-04-27T23:47:41.887Z,7.80
2019-04-27T23:50:12.567Z,7.50
2019-04-27T23:52:50.652Z,7.47
2019-04-27T23:55:23.550Z,6.60
2019-04-27T23:57:52.969Z,5.23
